createdAt,value
2018-02-05T00:00:45.818Z,40.87
2018-02-05T00:01:45.271Z,40.86
2018-02-05T00:02:45.683Z,40.79
2018-02-05T00:03:46.087Z,40.87
2018-02-05T00:04:45.784Z,40.86
2018-02-05T00:05:46.195Z,40.83
2018-02-05T00:06:46.610Z,40.95
2018-02-05T00:07:46.063Z,40.84
2018-02-05T00:08:46.474Z,40.96
2018-02-05T00:09:45.886Z,40.95
2018-02-05T00:10:46.294Z,40.91
2018-02-05T00:11:46.705Z,40.91
2018-02-05T00:12:46.144Z,40.92
2018-02-05T00:13:46.552Z,40.91
2018-02-05T00:14:45.972Z,40.87
2018-02-05T00:15:46.392Z,40.96
2018-02-05T00:16:45.799Z,40.88
2018-02-05T00:17:46.219Z,40.94
2018-02-05T00:18:46.658Z,40.91
2018-02-05T00:19:46.062Z,40.84
2018-02-05T00:20:46.478Z,40.88
2018-02-05T00:21:45.898Z,40.95
2018-02-05T00:22:46.302Z,40.95
2018-02-05T00:23:45.738Z,40.87
2018-02-05T00:24:46.148Z,40.92
2018-02-05T00:25:46.571Z,40.93
2018-02-05T00:26:45.988Z,40.95
2018-02-05T00:27:46.407Z,40.94
2018-02-05T00:28:45.812Z,40.92
2018-02-05T00:29:46.217Z,41.01
2018-02-05T00:30:46.621Z,40.98
2018-02-05T00:31:46.084Z,40.91
2018-02-05T00:32:46.498Z,40.89
2018-02-05T00:33:45.905Z,40.86
2018-02-05T00:34:46.315Z,40.9
2018-02-05T00:35:45.723Z,40.91
2018-02-05T00:36:46.116Z,40.98
2018-02-05T00:37:45.512Z,40.9
2018-02-05T00:38:45.918Z,40.93
2018-02-05T00:39:45.337Z,40.97
2018-02-05T00:40:45.750Z,40.96
2018-02-05T00:41:46.158Z,40.91
2018-02-05T00:42:45.550Z,40.95
2018-02-05T00:43:45.971Z,40.89
2018-02-05T00:44:45.403Z,40.9
2018-02-05T00:45:45.797Z,40.94
2018-02-05T00:46:46.207Z,40.9
2018-02-05T00:47:45.622Z,40.96
2018-02-05T00:48:46.026Z,40.93
2018-02-05T00:49:45.433Z,40.99
2018-02-05T00:50:45.853Z,40.93
2018-02-05T00:51:46.280Z,40.92
2018-02-05T00:52:45.692Z,40.94
2018-02-05T00:53:46.118Z,40.9
2018-02-05T00:54:45.689Z,40.98
2018-02-05T00:55:46.104Z,41
2018-02-05T00:56:45.493Z,40.98
2018-02-05T00:57:45.904Z,40.92
2018-02-05T00:58:45.318Z,40.93
2018-02-05T00:59:45.749Z,40.93
2018-02-05T01:00:46.165Z,41.06
2018-02-05T01:01:45.592Z,40.95
2018-02-05T01:02:46.000Z,40.91
2018-02-05T01:03:45.412Z,41.01
2018-02-05T01:04:45.827Z,40.97
2018-02-05T01:05:46.434Z,40.93
2018-02-05T01:06:46.838Z,40.91
2018-02-05T01:07:46.254Z,41.01
2018-02-05T01:08:46.702Z,40.99
2018-02-05T01:09:46.112Z,40.97
2018-02-05T01:10:46.504Z,40.95
2018-02-05T01:11:46.927Z,41
2018-02-05T01:12:46.341Z,40.99
2018-02-05T01:13:46.750Z,40.97
2018-02-05T01:14:46.163Z,41.06
2018-02-05T01:15:46.567Z,41.02
2018-02-05T01:16:46.992Z,40.98
2018-02-05T01:17:46.407Z,41
2018-02-05T01:18:46.813Z,40.98
2018-02-05T01:19:46.214Z,41.02
2018-02-05T01:20:46.611Z,40.96
2018-02-05T01:21:46.029Z,41
2018-02-05T01:22:46.447Z,40.99
2018-02-05T01:23:46.856Z,41.02
2018-02-05T01:24:46.264Z,41.04
2018-02-05T01:25:46.665Z,40.98
2018-02-05T01:26:46.188Z,40.97
2018-02-05T01:27:46.585Z,41.01
2018-02-05T01:28:46.975Z,41
2018-02-05T01:29:46.407Z,41.02
2018-02-05T01:30:46.802Z,40.99
2018-02-05T01:31:46.248Z,40.98
2018-02-05T01:32:46.666Z,40.89
2018-02-05T01:33:46.064Z,40.96
2018-02-05T01:34:46.464Z,41.04
2018-02-05T01:35:45.911Z,41.07
2018-02-05T01:36:46.304Z,41.01
2018-02-05T01:37:46.704Z,41.05
2018-02-05T01:38:46.102Z,41.04
2018-02-05T01:39:46.520Z,41.02
2018-02-05T01:41:46.259Z,40.96
2018-02-05T01:42:46.653Z,41
2018-02-05T01:44:46.416Z,40.99
2018-02-05T01:45:46.825Z,41
2018-02-05T01:46:46.227Z,41.07
2018-02-05T01:47:46.614Z,41
2018-02-05T01:48:46.121Z,41.01
2018-02-05T01:49:46.526Z,41.01
2018-02-05T01:50:45.934Z,40.9
2018-02-05T01:51:46.335Z,40.92
2018-02-05T01:52:46.730Z,41
2018-02-05T01:53:46.061Z,41
2018-02-05T01:54:46.497Z,40.96
2018-02-05T01:55:45.893Z,41
2018-02-05T01:56:46.301Z,40.97
2018-02-05T01:57:46.701Z,40.91
2018-02-05T01:58:46.140Z,40.95
2018-02-05T01:59:46.540Z,41
2018-02-05T02:00:45.966Z,40.96
2018-02-05T02:01:46.361Z,41.01
2018-02-05T02:02:46.753Z,41
2018-02-05T02:03:46.146Z,40.92
2018-02-05T02:04:46.533Z,40.96
2018-02-05T02:05:46.183Z,40.97
2018-02-05T02:06:46.589Z,40.95
2018-02-05T02:07:47.007Z,40.97
2018-02-05T02:08:46.379Z,40.94
2018-02-05T02:09:46.784Z,40.94
2018-02-05T02:10:46.193Z,40.94
2018-02-05T02:11:46.601Z,40.97
2018-02-05T02:12:47.010Z,40.95
2018-02-05T02:13:46.419Z,40.98
2018-02-05T02:14:46.853Z,40.94
2018-02-05T02:15:46.361Z,40.88
2018-02-05T02:16:46.754Z,40.9
2018-02-05T02:17:46.157Z,40.94
2018-02-05T02:18:46.549Z,40.96
2018-02-05T02:19:46.967Z,40.95
2018-02-05T02:20:46.368Z,40.94
2018-02-05T02:21:46.752Z,40.96
2018-02-05T02:22:46.142Z,40.92
2018-02-05T02:23:46.545Z,40.94
2018-02-05T02:24:46.957Z,40.95
2018-02-05T02:25:46.358Z,40.97
2018-02-05T02:26:46.797Z,40.92
2018-02-05T02:27:46.205Z,40.94
2018-02-05T02:28:46.595Z,40.9
2018-02-05T02:29:47.020Z,40.97
2018-02-05T02:30:46.406Z,40.94
2018-02-05T02:31:46.804Z,40.95
2018-02-05T02:32:46.203Z,40.98
2018-02-05T02:33:46.610Z,41.04
2018-02-05T02:34:47.045Z,40.91
2018-02-05T02:35:45.543Z,40.97
2018-02-05T02:36:45.982Z,40.88
2018-02-05T02:37:46.361Z,41
2018-02-05T02:38:45.789Z,40.86
2018-02-05T02:39:46.195Z,40.85
2018-02-05T02:40:45.589Z,40.88
2018-02-05T02:41:45.988Z,40.94
2018-02-05T02:42:46.503Z,40.9
2018-02-05T02:43:45.908Z,40.91
2018-02-05T02:44:46.294Z,40.86
2018-02-05T02:45:45.739Z,40.8
2018-02-05T02:46:46.136Z,40.8
2018-02-05T02:47:45.532Z,40.87
2018-02-05T02:48:45.941Z,40.88
2018-02-05T02:49:46.820Z,40.91
2018-02-05T02:50:46.219Z,40.93
2018-02-05T02:51:45.625Z,40.89
2018-02-05T02:52:46.019Z,40.88
2018-02-05T02:53:46.419Z,40.93
2018-02-05T02:54:45.820Z,40.96
2018-02-05T02:55:46.233Z,40.89
2018-02-05T02:56:45.656Z,40.92
2018-02-05T02:57:46.065Z,40.9
2018-02-05T02:58:46.519Z,40.92
2018-02-05T02:59:45.920Z,40.92
2018-02-05T03:00:46.316Z,40.87
2018-02-05T03:01:45.722Z,40.95
2018-02-05T03:02:46.142Z,40.99
2018-02-05T03:03:45.591Z,40.9
2018-02-05T03:04:45.981Z,40.92
2018-02-05T03:05:46.419Z,40.91
2018-02-05T03:06:46.005Z,40.88
2018-02-05T03:07:45.419Z,40.87
2018-02-05T03:08:45.811Z,40.98
2018-02-05T03:09:46.238Z,40.93
2018-02-05T03:10:45.639Z,40.87
2018-02-05T03:11:46.052Z,40.85
2018-02-05T03:12:45.476Z,40.83
2018-02-05T03:13:45.898Z,40.87
2018-02-05T03:14:45.294Z,40.84
2018-02-05T03:15:45.690Z,40.86
2018-02-05T03:16:46.127Z,40.87
2018-02-05T03:17:45.530Z,40.86
2018-02-05T03:18:45.919Z,40.86
2018-02-05T03:19:45.354Z,40.85
2018-02-05T03:20:45.797Z,40.89
2018-02-05T03:21:46.201Z,40.84
2018-02-05T03:22:45.601Z,40.91
2018-02-05T03:23:46.001Z,40.84
2018-02-05T03:24:45.411Z,40.85
2018-02-05T03:25:45.819Z,40.87
2018-02-05T03:26:46.237Z,40.89
2018-02-05T03:27:45.632Z,40.86
2018-02-05T03:28:46.026Z,40.94
2018-02-05T03:29:45.457Z,40.92
2018-02-05T03:30:45.884Z,40.86
2018-02-05T03:31:45.295Z,40.87
2018-02-05T03:32:45.689Z,40.87
2018-02-05T03:33:46.091Z,40.89
2018-02-05T03:34:45.499Z,40.93
2018-02-05T03:35:45.892Z,40.87
2018-02-05T03:36:46.366Z,40.89
2018-02-05T03:37:46.768Z,40.83
2018-02-05T03:38:46.172Z,40.86
2018-02-05T03:39:46.579Z,40.8
2018-02-05T03:40:45.977Z,40.82
2018-02-05T03:41:46.410Z,40.91
2018-02-05T03:42:46.870Z,40.8
2018-02-05T03:43:46.265Z,40.79
2018-02-05T03:44:46.656Z,40.83
2018-02-05T03:45:46.082Z,40.78
2018-02-05T03:46:46.490Z,40.8
2018-02-05T03:47:46.911Z,40.88
2018-02-05T03:48:46.301Z,40.82
2018-02-05T03:49:46.682Z,40.84
2018-02-05T03:50:46.103Z,40.89
2018-02-05T03:51:46.490Z,40.79
2018-02-05T03:52:46.899Z,40.9
2018-02-05T03:53:46.325Z,40.85
2018-02-05T03:54:46.743Z,40.76
2018-02-05T03:55:46.150Z,40.86
2018-02-05T03:56:46.552Z,40.87
2018-02-05T03:57:46.957Z,40.87
2018-02-05T03:58:46.373Z,40.78
2018-02-05T03:59:46.791Z,40.85
2018-02-05T04:00:46.176Z,40.8
2018-02-05T04:01:46.599Z,40.88
2018-02-05T04:02:46.004Z,40.88
2018-02-05T04:03:46.414Z,40.86
2018-02-05T04:04:46.811Z,40.9
2018-02-05T04:05:46.239Z,40.87
2018-02-05T04:06:45.715Z,40.89
2018-02-05T04:07:46.309Z,40.91
2018-02-05T04:08:45.754Z,40.89
2018-02-05T04:09:46.159Z,40.91
2018-02-05T04:10:46.559Z,40.87
2018-02-05T04:11:45.966Z,40.83
2018-02-05T04:12:46.354Z,40.85
2018-02-05T04:13:45.809Z,40.78
2018-02-05T04:14:46.199Z,40.82
2018-02-05T04:15:46.597Z,40.82
2018-02-05T04:16:45.996Z,40.84
2018-02-05T04:17:46.407Z,40.83
2018-02-05T04:18:45.787Z,40.86
2018-02-05T04:19:46.183Z,40.87
2018-02-05T04:20:46.590Z,40.82
2018-02-05T04:21:45.989Z,40.8
2018-02-05T04:22:46.385Z,40.77
2018-02-05T04:23:45.774Z,40.82
2018-02-05T04:24:46.170Z,40.88
2018-02-05T04:25:46.553Z,40.83
2018-02-05T04:26:45.961Z,40.77
2018-02-05T04:27:46.391Z,40.77
2018-02-05T04:28:45.787Z,40.8
2018-02-05T04:29:46.183Z,40.83
2018-02-05T04:30:46.591Z,40.89
2018-02-05T04:31:45.996Z,40.88
2018-02-05T04:32:46.441Z,40.89
2018-02-05T04:33:45.863Z,40.91
2018-02-05T04:34:46.258Z,40.83
2018-02-05T04:35:45.660Z,40.86
2018-02-05T04:36:46.074Z,40.83
2018-02-05T04:37:46.491Z,40.88
2018-02-05T04:38:46.888Z,40.86
2018-02-05T04:39:46.356Z,40.9
2018-02-05T04:40:46.767Z,40.87
2018-02-05T04:41:46.156Z,40.91
2018-02-05T04:42:46.580Z,40.87
2018-02-05T04:43:47.008Z,40.9
2018-02-05T04:44:46.413Z,40.87
2018-02-05T04:45:46.853Z,40.86
2018-02-05T04:46:46.201Z,40.84
2018-02-05T04:47:46.891Z,40.8
2018-02-05T04:48:46.289Z,40.83
2018-02-05T04:49:46.697Z,40.79
2018-02-05T04:50:46.089Z,40.85
2018-02-05T04:51:46.480Z,40.93
2018-02-05T04:52:46.892Z,40.83
2018-02-05T04:53:46.270Z,40.82
2018-02-05T04:54:46.672Z,40.87
2018-02-05T04:55:46.101Z,40.87
2018-02-05T04:56:46.510Z,40.84
2018-02-05T04:57:46.944Z,40.87
2018-02-05T04:58:46.336Z,40.86
2018-02-05T04:59:46.737Z,40.86
2018-02-05T05:00:46.136Z,40.92
2018-02-05T05:01:46.523Z,40.9
2018-02-05T05:02:46.957Z,40.9
2018-02-05T05:03:46.351Z,40.91
2018-02-05T05:04:46.748Z,40.89
2018-02-05T05:05:46.145Z,40.91
2018-02-05T05:06:46.578Z,40.99
2018-02-05T05:07:46.172Z,40.96
2018-02-05T05:08:46.555Z,40.97
2018-02-05T05:09:45.995Z,41
2018-02-05T05:10:46.394Z,40.99
2018-02-05T05:11:46.778Z,41.02
2018-02-05T05:12:46.170Z,41
2018-02-05T05:13:46.581Z,41.04
2018-02-05T05:14:46.016Z,41.04
2018-02-05T05:15:46.406Z,41.03
2018-02-05T05:16:46.019Z,41.04
2018-02-05T05:17:46.448Z,41.06
2018-02-05T05:18:45.894Z,41
2018-02-05T05:19:46.291Z,40.97
2018-02-05T05:20:46.696Z,41.07
2018-02-05T05:21:46.118Z,41.05
2018-02-05T05:22:46.564Z,41.03
2018-02-05T05:23:45.988Z,41.07
2018-02-05T05:24:46.383Z,41.04
2018-02-05T05:25:45.800Z,41.04
2018-02-05T05:26:46.218Z,41.03
2018-02-05T05:27:46.615Z,40.94
2018-02-05T05:28:46.021Z,40.96
2018-02-05T05:29:46.473Z,40.88
2018-02-05T05:30:45.908Z,40.88
2018-02-05T05:31:46.315Z,40.87
2018-02-05T05:32:46.748Z,40.88
2018-02-05T05:33:46.151Z,40.87
2018-02-05T05:34:46.566Z,40.85
2018-02-05T05:35:45.973Z,40.88
2018-02-05T05:36:46.392Z,40.88
2018-02-05T05:37:45.828Z,40.84
2018-02-05T05:38:46.225Z,40.83
2018-02-05T05:39:45.655Z,40.85
2018-02-05T05:40:46.050Z,40.85
2018-02-05T05:41:46.469Z,40.84
2018-02-05T05:42:45.861Z,40.82
2018-02-05T05:43:46.275Z,40.83
2018-02-05T05:44:45.675Z,40.84
2018-02-05T05:45:46.090Z,40.84
2018-02-05T05:46:46.478Z,40.82
2018-02-05T05:47:45.887Z,40.83
2018-02-05T05:48:46.297Z,40.85
2018-02-05T05:49:45.936Z,40.82
2018-02-05T05:50:46.336Z,40.83
2018-02-05T05:51:45.725Z,40.83
2018-02-05T05:52:46.114Z,40.81
2018-02-05T05:53:45.523Z,40.83
2018-02-05T05:54:45.927Z,40.8
2018-02-05T05:55:46.331Z,40.82
2018-02-05T05:56:45.745Z,40.85
2018-02-05T05:57:46.164Z,40.82
2018-02-05T05:58:45.568Z,40.83
2018-02-05T05:59:45.994Z,40.83
2018-02-05T06:00:46.423Z,40.83
2018-02-05T06:01:45.829Z,40.8
2018-02-05T06:02:46.225Z,40.83
2018-02-05T06:03:45.653Z,40.82
2018-02-05T06:05:46.351Z,40.81
2018-02-05T06:06:45.755Z,40.83
2018-02-05T06:07:46.186Z,40.78
2018-02-05T06:08:46.790Z,40.8
2018-02-05T06:09:46.240Z,40.8
2018-02-05T06:10:46.667Z,40.81
2018-02-05T06:11:47.081Z,40.82
2018-02-05T06:12:46.480Z,40.81
2018-02-05T06:13:46.873Z,40.83
2018-02-05T06:14:46.265Z,40.83
2018-02-05T06:15:46.647Z,40.84
2018-02-05T06:16:47.053Z,40.82
2018-02-05T06:17:46.460Z,40.81
2018-02-05T06:18:47.002Z,40.82
2018-02-05T06:19:46.398Z,40.81
2018-02-05T06:20:46.786Z,40.78
2018-02-05T06:21:46.187Z,40.77
2018-02-05T06:22:46.612Z,40.76
2018-02-05T06:23:47.070Z,40.77
2018-02-05T06:24:46.492Z,40.76
2018-02-05T06:25:46.928Z,40.75
2018-02-05T06:26:46.333Z,40.78
2018-02-05T06:27:46.757Z,40.76
2018-02-05T06:28:46.195Z,40.76
2018-02-05T06:29:46.577Z,40.76
2018-02-05T06:30:47.010Z,40.76
2018-02-05T06:31:46.409Z,40.76
2018-02-05T06:32:46.850Z,40.74
2018-02-05T06:33:46.316Z,40.74
2018-02-05T06:34:46.707Z,40.74
2018-02-05T06:35:47.090Z,40.72
2018-02-05T06:36:46.507Z,40.71
2018-02-05T06:37:45.980Z,40.73
2018-02-05T06:38:46.562Z,40.71
2018-02-05T06:39:45.995Z,40.72
2018-02-05T06:40:46.392Z,40.72
2018-02-05T06:41:46.782Z,40.68
2018-02-05T06:42:46.202Z,40.69
2018-02-05T06:43:46.638Z,40.69
2018-02-05T06:44:46.038Z,40.67
2018-02-05T06:45:46.446Z,40.68
2018-02-05T06:46:47.138Z,40.68
2018-02-05T06:47:47.057Z,40.69
2018-02-05T06:48:46.450Z,40.67
2018-02-05T06:49:46.834Z,40.67
2018-02-05T06:50:46.247Z,40.62
2018-02-05T06:51:46.674Z,40.67
2018-02-05T06:52:46.095Z,40.62
2018-02-05T06:53:46.475Z,40.64
2018-02-05T06:54:46.855Z,40.64
2018-02-05T06:55:46.232Z,40.65
2018-02-05T06:56:46.908Z,40.64
2018-02-05T06:57:46.289Z,40.64
2018-02-05T06:58:46.691Z,40.63
2018-02-05T06:59:46.082Z,40.59
2018-02-05T07:00:46.482Z,40.61
2018-02-05T07:01:47.036Z,40.59
2018-02-05T07:02:46.995Z,40.58
2018-02-05T07:03:46.383Z,40.58
2018-02-05T07:04:46.770Z,40.57
2018-02-05T07:05:46.165Z,40.52
2018-02-05T07:06:46.544Z,40.55
2018-02-05T07:07:46.101Z,40.56
2018-02-05T07:08:46.497Z,40.59
2018-02-05T07:09:46.181Z,40.51
2018-02-05T07:10:46.674Z,40.51
2018-02-05T07:11:46.080Z,40.49
2018-02-05T07:12:46.454Z,40.52
2018-02-05T07:13:46.953Z,40.54
2018-02-05T07:14:46.337Z,40.48
2018-02-05T07:15:46.734Z,40.5
2018-02-05T07:16:46.126Z,40.54
2018-02-05T07:17:46.534Z,40.52
2018-02-05T07:18:46.953Z,40.56
2018-02-05T07:19:46.354Z,40.53
2018-02-05T07:20:46.798Z,40.49
2018-02-05T07:21:46.193Z,40.49
2018-02-05T07:22:46.580Z,40.47
2018-02-05T07:23:46.983Z,40.45
2018-02-05T07:24:46.371Z,40.49
2018-02-05T07:25:46.771Z,40.47
2018-02-05T07:26:46.203Z,40.49
2018-02-05T07:27:46.634Z,40.48
2018-02-05T07:28:46.035Z,40.53
2018-02-05T07:29:46.456Z,40.45
2018-02-05T07:30:46.839Z,40.49
2018-02-05T07:31:46.237Z,40.54
2018-02-05T07:32:46.651Z,40.45
2018-02-05T07:33:46.041Z,40.5
2018-02-05T07:34:46.424Z,40.49
2018-02-05T07:35:46.819Z,40.46
2018-02-05T07:36:46.264Z,40.51
2018-02-05T07:37:46.653Z,40.48
2018-02-05T07:38:46.039Z,40.47
2018-02-05T07:39:45.421Z,40.54
2018-02-05T07:40:45.809Z,40.55
2018-02-05T07:41:46.255Z,40.5
2018-02-05T07:42:45.742Z,40.55
2018-02-05T07:43:46.133Z,40.52
2018-02-05T07:44:45.573Z,40.53
2018-02-05T07:45:45.982Z,40.56
2018-02-05T07:46:45.403Z,40.52
2018-02-05T07:47:45.783Z,40.57
2018-02-05T07:48:46.175Z,40.52
2018-02-05T07:49:45.576Z,40.54
2018-02-05T07:50:45.989Z,40.56
2018-02-05T07:51:45.400Z,40.58
2018-02-05T07:52:45.808Z,40.61
2018-02-05T07:53:46.194Z,40.6
2018-02-05T07:54:45.575Z,40.57
2018-02-05T07:55:45.977Z,40.59
2018-02-05T07:56:46.384Z,40.64
2018-02-05T07:57:45.768Z,40.66
2018-02-05T07:58:46.196Z,40.57
2018-02-05T07:59:45.658Z,40.71
2018-02-05T08:00:46.076Z,40.69
2018-02-05T08:01:45.484Z,40.69
2018-02-05T08:02:45.915Z,40.75
2018-02-05T08:03:46.322Z,40.61
2018-02-05T08:04:45.743Z,40.7
2018-02-05T08:05:46.189Z,40.77
2018-02-05T08:06:45.602Z,40.67
2018-02-05T08:07:46.024Z,40.72
2018-02-05T08:08:46.436Z,40.74
2018-02-05T08:09:46.852Z,40.76
2018-02-05T08:10:46.500Z,40.73
2018-02-05T08:11:46.930Z,40.75
2018-02-05T08:12:46.354Z,40.71
2018-02-05T08:13:46.757Z,40.75
2018-02-05T08:14:47.176Z,40.78
2018-02-05T08:15:46.638Z,40.76
2018-02-05T08:16:47.071Z,40.69
2018-02-05T08:17:46.509Z,40.72
2018-02-05T08:18:46.918Z,40.75
2018-02-05T08:19:46.343Z,40.71
2018-02-05T08:20:46.788Z,40.75
2018-02-05T08:21:46.204Z,40.68
2018-02-05T08:22:46.577Z,40.65
2018-02-05T08:23:47.018Z,40.66
2018-02-05T08:24:46.442Z,40.71
2018-02-05T08:25:46.915Z,40.69
2018-02-05T08:26:46.342Z,40.69
2018-02-05T08:27:46.758Z,40.69
2018-02-05T08:28:47.171Z,40.71
2018-02-05T08:29:46.612Z,40.63
2018-02-05T08:30:47.028Z,40.68
2018-02-05T08:31:46.474Z,40.68
2018-02-05T08:32:46.876Z,40.59
2018-02-05T08:33:46.308Z,40.61
2018-02-05T08:34:46.732Z,40.66
2018-02-05T08:35:47.171Z,40.55
2018-02-05T08:36:46.620Z,40.55
2018-02-05T08:37:46.985Z,40.61
2018-02-05T08:38:46.407Z,40.58
2018-02-05T08:39:46.837Z,40.52
2018-02-05T08:40:46.256Z,40.49
2018-02-05T08:41:46.661Z,40.49
2018-02-05T08:42:46.082Z,40.46
2018-02-05T08:43:46.506Z,40.45
2018-02-05T08:44:45.969Z,40.47
2018-02-05T08:45:46.417Z,40.56
2018-02-05T08:46:46.831Z,40.46
2018-02-05T08:47:46.234Z,40.42
2018-02-05T08:48:46.668Z,40.37
2018-02-05T08:49:46.128Z,40.47
2018-02-05T08:51:46.499Z,40.55
2018-02-05T08:52:45.926Z,40.54
2018-02-05T08:53:46.341Z,40.48
2018-02-05T08:54:46.814Z,40.32
2018-02-05T08:55:46.260Z,39.88
2018-02-05T08:56:46.768Z,39.35
2018-02-05T08:57:46.200Z,39.45
2018-02-05T08:58:46.609Z,39.5
2018-02-05T08:59:46.036Z,39.46
2018-02-05T09:00:46.444Z,39.38
2018-02-05T09:01:46.920Z,39.26
2018-02-05T09:02:46.322Z,39.27
2018-02-05T09:03:46.755Z,39.3
2018-02-05T09:04:46.209Z,39.23
2018-02-05T09:05:46.654Z,39.17
2018-02-05T09:06:46.166Z,39.24
2018-02-05T09:07:46.604Z,39.04
2018-02-05T09:08:46.101Z,39.13
2018-02-05T09:09:46.472Z,39.05
2018-02-05T09:10:46.893Z,39.04
2018-02-05T09:11:46.583Z,39.1
2018-02-05T09:12:47.026Z,39.04
2018-02-05T09:13:46.447Z,39.12
2018-02-05T09:14:46.871Z,39.09
2018-02-05T09:15:46.302Z,39.1
2018-02-05T09:16:46.722Z,39.09
2018-02-05T09:17:46.137Z,39.05
2018-02-05T09:18:46.557Z,39.12
2018-02-05T09:19:46.999Z,39.05
2018-02-05T09:20:46.504Z,39.06
2018-02-05T09:21:46.910Z,39.09
2018-02-05T09:22:46.350Z,38.96
2018-02-05T09:23:46.761Z,39.04
2018-02-05T09:24:46.179Z,39.03
2018-02-05T09:25:46.610Z,39.19
2018-02-05T09:26:47.044Z,39.13
2018-02-05T09:27:46.461Z,39
2018-02-05T09:28:46.887Z,39
2018-02-05T09:29:46.344Z,39.1
2018-02-05T09:30:46.779Z,39.07
2018-02-05T09:31:46.361Z,38.53
2018-02-05T09:32:46.785Z,38.57
2018-02-05T09:33:46.207Z,38.9
2018-02-05T09:34:46.640Z,39.09
2018-02-05T09:35:46.064Z,39.39
2018-02-05T09:36:46.486Z,39.27
2018-02-05T09:37:46.924Z,39.26
2018-02-05T09:38:45.443Z,39.16
2018-02-05T09:39:45.864Z,39.36
2018-02-05T09:40:46.287Z,39.32
2018-02-05T09:41:45.700Z,39.24
2018-02-05T09:43:49.491Z,39.47
2018-02-05T09:44:45.944Z,39.27
2018-02-05T09:45:46.321Z,39.48
2018-02-05T09:46:45.764Z,39.55
2018-02-05T09:47:46.281Z,39.43
2018-02-05T09:48:45.711Z,39.22
2018-02-05T09:49:46.142Z,39.26
2018-02-05T09:50:45.573Z,39.42
2018-02-05T09:51:46.011Z,39.27
2018-02-05T09:52:45.438Z,39.43
2018-02-05T09:53:45.864Z,39.39
2018-02-05T09:54:46.286Z,39.43
2018-02-05T09:55:45.723Z,39.45
2018-02-05T09:56:46.153Z,39.37
2018-02-05T09:57:45.603Z,39.56
2018-02-05T09:58:46.051Z,39.56
2018-02-05T09:59:45.553Z,39.52
2018-02-05T10:00:45.959Z,39.58
2018-02-05T10:01:45.388Z,39.6
2018-02-05T10:02:45.882Z,39.56
2018-02-05T10:03:46.298Z,39.39
2018-02-05T10:04:45.750Z,39.64
2018-02-05T10:05:46.168Z,39.64
2018-02-05T10:06:45.605Z,39.55
2018-02-05T10:07:46.169Z,39.61
2018-02-05T10:08:45.579Z,39.46
2018-02-05T10:09:46.021Z,39.58
2018-02-05T10:10:45.436Z,39.68
2018-02-05T10:11:45.873Z,39.58
2018-02-05T10:12:45.541Z,39.53
2018-02-05T10:13:45.968Z,39.66
2018-02-05T10:14:45.389Z,39.65
2018-02-05T10:15:45.816Z,39.57
2018-02-05T10:16:46.248Z,39.6
2018-02-05T10:17:45.682Z,39.65
2018-02-05T10:18:46.113Z,39.59
2018-02-05T10:19:45.539Z,39.66
2018-02-05T10:20:45.947Z,39.65
2018-02-05T10:21:46.352Z,39.66
2018-02-05T10:22:45.781Z,39.65
2018-02-05T10:23:46.200Z,39.64
2018-02-05T10:24:45.643Z,39.62
2018-02-05T10:25:46.079Z,39.67
2018-02-05T10:26:45.488Z,39.6
2018-02-05T10:27:45.917Z,39.67
2018-02-05T10:28:46.346Z,39.65
2018-02-05T10:29:45.765Z,39.65
2018-02-05T10:30:46.220Z,39.71
2018-02-05T10:31:45.698Z,39.65
2018-02-05T10:32:46.124Z,39.65
2018-02-05T10:33:45.550Z,39.67
2018-02-05T10:34:45.964Z,39.65
2018-02-05T10:35:45.401Z,39.61
2018-02-05T10:36:45.834Z,39.68
2018-02-05T10:37:46.259Z,39.62
2018-02-05T10:38:45.791Z,39.62
2018-02-05T10:39:46.209Z,39.69
2018-02-05T10:40:46.644Z,39.72
2018-02-05T10:41:47.070Z,39.7
2018-02-05T10:42:46.491Z,39.66
2018-02-05T10:43:46.919Z,39.67
2018-02-05T10:44:46.401Z,39.72
2018-02-05T10:45:46.818Z,39.64
2018-02-05T10:46:46.273Z,39.7
2018-02-05T10:47:46.705Z,39.73
2018-02-05T10:48:47.134Z,39.68
2018-02-05T10:49:46.611Z,39.65
2018-02-05T10:50:47.038Z,39.67
2018-02-05T10:51:46.514Z,39.7
2018-02-05T10:52:46.937Z,39.66
2018-02-05T10:53:46.358Z,39.67
2018-02-05T10:54:46.787Z,39.68
2018-02-05T10:55:46.202Z,39.66
2018-02-05T10:56:46.628Z,39.69
2018-02-05T10:57:47.112Z,39.75
2018-02-05T10:58:46.565Z,39.75
2018-02-05T10:59:46.987Z,39.77
2018-02-05T11:00:46.440Z,39.72
2018-02-05T11:01:46.914Z,39.69
2018-02-05T11:02:46.384Z,39.69
2018-02-05T11:03:46.810Z,39.77
2018-02-05T11:04:46.222Z,39.77
2018-02-05T11:05:46.649Z,39.73
2018-02-05T11:06:47.074Z,39.81
2018-02-05T11:07:46.501Z,39.8
2018-02-05T11:08:47.029Z,39.71
2018-02-05T11:09:46.460Z,39.75
2018-02-05T11:10:46.881Z,39.78
2018-02-05T11:11:46.317Z,39.78
2018-02-05T11:12:46.723Z,39.75
2018-02-05T11:13:46.643Z,39.76
2018-02-05T11:14:46.088Z,39.79
2018-02-05T11:15:46.508Z,39.79
2018-02-05T11:16:46.934Z,39.78
2018-02-05T11:17:46.404Z,39.79
2018-02-05T11:18:46.839Z,39.82
2018-02-05T11:19:46.260Z,39.8
2018-02-05T11:20:46.700Z,39.8
2018-02-05T11:21:46.116Z,39.83
2018-02-05T11:22:46.657Z,39.84
2018-02-05T11:23:46.094Z,39.82
2018-02-05T11:24:46.517Z,39.87
2018-02-05T11:25:46.958Z,39.86
2018-02-05T11:26:46.360Z,39.81
2018-02-05T11:27:46.782Z,39.86
2018-02-05T11:28:46.212Z,39.87
2018-02-05T11:29:46.636Z,39.87
2018-02-05T11:30:46.061Z,39.86
2018-02-05T11:31:46.503Z,39.96
2018-02-05T11:32:46.924Z,39.87
2018-02-05T11:33:46.349Z,39.86
2018-02-05T11:34:46.793Z,39.8
2018-02-05T11:35:46.227Z,39.82
2018-02-05T11:36:46.641Z,39.87
2018-02-05T11:37:46.091Z,39.85
2018-02-05T11:38:46.517Z,39.92
2018-02-05T11:39:46.155Z,39.86
2018-02-05T11:40:46.575Z,39.88
2018-02-05T11:41:46.992Z,39.93
2018-02-05T11:42:46.410Z,39.89
2018-02-05T11:43:46.838Z,39.85
2018-02-05T11:44:46.247Z,39.91
2018-02-05T11:45:46.669Z,39.89
2018-02-05T11:46:46.141Z,39.89
2018-02-05T11:47:46.644Z,39.96
2018-02-05T11:48:47.073Z,39.93
2018-02-05T11:49:46.485Z,39.91
2018-02-05T11:50:46.906Z,39.94
2018-02-05T11:51:46.319Z,39.9
2018-02-05T11:52:46.775Z,39.9
2018-02-05T11:53:46.199Z,39.96
2018-02-05T11:54:46.628Z,39.94
2018-02-05T11:55:47.048Z,39.95
2018-02-05T11:56:46.462Z,39.97
2018-02-05T11:57:46.896Z,39.97
2018-02-05T11:58:46.330Z,39.99
2018-02-05T11:59:46.751Z,39.99
2018-02-05T12:00:46.168Z,39.93
2018-02-05T12:01:46.597Z,39.9
2018-02-05T12:02:47.075Z,39.99
2018-02-05T12:03:46.491Z,39.93
2018-02-05T12:04:46.948Z,39.96
2018-02-05T12:05:46.380Z,39.94
2018-02-05T12:06:46.803Z,39.97
2018-02-05T12:07:46.245Z,39.96
2018-02-05T12:08:46.668Z,39.95
2018-02-05T12:09:46.150Z,39.91
2018-02-05T12:10:46.562Z,40.01
2018-02-05T12:11:46.983Z,39.94
2018-02-05T12:12:46.402Z,39.91
2018-02-05T12:13:46.831Z,39.89
2018-02-05T12:14:46.499Z,39.93
2018-02-05T12:15:46.928Z,39.92
2018-02-05T12:16:46.365Z,39.94
2018-02-05T12:17:46.795Z,40.04
2018-02-05T12:18:46.261Z,39.95
2018-02-05T12:19:46.683Z,39.95
2018-02-05T12:20:46.109Z,39.97
2018-02-05T12:21:46.541Z,39.98
2018-02-05T12:22:46.964Z,39.95
2018-02-05T12:23:46.455Z,39.94
2018-02-05T12:24:46.881Z,39.92
2018-02-05T12:25:46.296Z,39.96
2018-02-05T12:26:46.716Z,40.01
2018-02-05T12:27:46.147Z,40
2018-02-05T12:28:46.587Z,40.05
2018-02-05T12:29:47.039Z,40.06
2018-02-05T12:30:46.467Z,40.01
2018-02-05T12:31:47.024Z,40.01
2018-02-05T12:32:46.456Z,39.97
2018-02-05T12:33:46.867Z,40
2018-02-05T12:34:46.308Z,39.99
2018-02-05T12:35:46.773Z,39.99
2018-02-05T12:36:46.200Z,39.94
2018-02-05T12:37:46.637Z,40.02
2018-02-05T12:38:47.068Z,39.96
2018-02-05T12:39:45.708Z,39.97
2018-02-05T12:40:46.282Z,39.95
2018-02-05T12:41:45.699Z,40.04
2018-02-05T12:42:46.129Z,40.04
2018-02-05T12:43:46.577Z,39.94
2018-02-05T12:44:45.997Z,40.02
2018-02-05T12:45:46.529Z,39.99
2018-02-05T12:46:45.965Z,40.01
2018-02-05T12:47:46.397Z,40.02
2018-02-05T12:48:45.832Z,39.94
2018-02-05T12:49:46.264Z,40.08
2018-02-05T12:50:45.708Z,40.03
2018-02-05T12:51:46.228Z,40.01
2018-02-05T12:52:45.660Z,40.11
2018-02-05T12:53:46.094Z,39.98
2018-02-05T12:54:46.519Z,39.97
2018-02-05T12:55:45.957Z,40.05
2018-02-05T12:56:46.588Z,40.03
2018-02-05T12:57:46.023Z,40.03
2018-02-05T12:58:46.453Z,40.03
2018-02-05T12:59:45.910Z,40.12
2018-02-05T13:00:46.305Z,40.02
2018-02-05T13:01:45.800Z,40.03